createdAt,value
2022-10-28T00:00:51.010Z,55.84472
2022-10-28T00:05:52.633Z,56.30694
2022-10-28T00:10:54.326Z,55.60733
2022-10-28T00:15:55.948Z,54.67902
2022-10-28T00:20:57.580Z,55.98697
2022-10-28T00:25:59.229Z,56.66075
2022-10-28T00:31:00.857Z,54.4384
2022-10-28T00:36:04.302Z,54.83924
2022-10-28T00:41:06.472Z,56.95365
2022-10-28T00:46:08.044Z,57.18363
2022-10-28T00:51:09.720Z,55.87389
2022-10-28T00:56:11.485Z,57.53099
2022-10-28T01:01:13.115Z,56.58676
2022-10-28T01:06:14.843Z,55.63251
2022-10-28T01:11:16.501Z,56.40535
2022-10-28T01:16:18.091Z,56.35482
2022-10-28T01:21:19.911Z,56.49632
2022-10-28T01:26:21.577Z,55.97484
2022-10-28T01:31:23.230Z,59.43771
2022-10-28T01:36:24.825Z,58.56394
2022-10-28T01:41:26.439Z,58.82163
2022-10-28T01:46:28.051Z,57.10627
2022-10-28T01:51:29.678Z,57.08605
2022-10-28T01:56:31.392Z,56.10143
2022-10-28T02:01:33.171Z,58.10386
2022-10-28T02:06:34.858Z,58.38384
2022-10-28T02:11:36.491Z,58.58475
2022-10-28T02:16:38.090Z,58.77101
2022-10-28T02:21:39.859Z,58.67175
2022-10-28T02:26:41.464Z,58.38722
2022-10-28T02:31:43.084Z,57.90697
2022-10-28T02:36:44.708Z,57.59216
2022-10-28T02:41:46.349Z,58.72205
2022-10-28T02:46:47.980Z,59.04657
2022-10-28T02:51:49.587Z,59.20928
2022-10-28T02:56:51.234Z,57.99348
2022-10-28T03:01:52.921Z,57.25042
2022-10-28T03:06:54.633Z,58.16995
2022-10-28T03:11:56.270Z,59.49567
2022-10-28T03:16:57.883Z,60.28374
2022-10-28T03:21:59.519Z,60.15903
2022-10-28T03:27:01.189Z,59.18665
2022-10-28T03:32:02.797Z,58.99001
2022-10-28T03:37:04.495Z,58.45078
2022-10-28T03:42:06.150Z,59.06004
2022-10-28T03:47:07.773Z,59.56282
2022-10-28T03:52:09.386Z,58.71496
2022-10-28T03:57:11.725Z,59.90752
2022-10-28T04:02:13.438Z,58.66324
2022-10-28T04:07:15.130Z,59.28406
2022-10-28T04:12:16.764Z,60.15887
2022-10-28T04:17:18.362Z,61.01779
2022-10-28T04:22:20.065Z,63.55377
2022-10-28T04:27:21.712Z,60.22199
2022-10-28T04:32:23.284Z,62.16353
2022-10-28T04:37:24.883Z,59.67205
2022-10-28T04:42:26.522Z,59.35821
2022-10-28T04:47:28.135Z,62.04129
2022-10-28T04:52:29.769Z,62.77198
2022-10-28T04:57:31.380Z,61.53278
2022-10-28T05:02:33.043Z,59.56382
2022-10-28T05:07:34.755Z,59.87372
2022-10-28T05:12:36.357Z,62.09712
2022-10-28T05:17:37.973Z,60.18161
2022-10-28T05:22:39.686Z,59.40669
2022-10-28T05:27:41.338Z,60.83411
2022-10-28T05:32:42.976Z,60.01931
2022-10-28T05:37:44.555Z,60.57035
2022-10-28T05:42:46.184Z,60.07621
2022-10-28T05:47:47.816Z,61.31375
2022-10-28T05:52:49.440Z,61.57659
2022-10-28T05:57:51.336Z,61.41396
2022-10-28T06:02:53.310Z,61.51831
2022-10-28T06:07:55.149Z,61.60432
2022-10-28T06:12:55.344Z,60.88884
2022-10-28T06:17:56.992Z,61.47368
2022-10-28T06:22:58.683Z,61.86641
2022-10-28T06:28:00.310Z,60.08397
2022-10-28T06:33:01.940Z,61.35597
2022-10-28T06:38:08.510Z,61.69333
2022-10-28T06:43:11.035Z,61.37377
2022-10-28T06:48:14.156Z,60.68691
2022-10-28T06:53:15.828Z,60.4762
2022-10-28T06:58:17.462Z,60.9205
2022-10-28T07:03:19.117Z,61.94808
2022-10-28T07:08:20.808Z,60.29303
2022-10-28T07:13:22.426Z,61.20952
2022-10-28T07:18:24.028Z,62.6184
2022-10-28T07:23:25.630Z,62.68796
2022-10-28T07:28:27.288Z,64.24961
2022-10-28T07:33:28.906Z,63.93574
2022-10-28T07:38:30.641Z,65.827
2022-10-28T07:43:32.261Z,67.23038
2022-10-28T07:48:33.868Z,68.99866
2022-10-28T07:53:35.506Z,69.28375
2022-10-28T07:58:37.084Z,68.11634
2022-10-28T08:03:39.266Z,71.42869
2022-10-28T08:08:40.944Z,69.18021
2022-10-28T08:13:42.508Z,68.31751
2022-10-28T08:18:44.095Z,68.72687
2022-10-28T08:23:45.679Z,68.6991
2022-10-28T08:28:47.294Z,69.4704
2022-10-28T08:33:48.930Z,69.30656
2022-10-28T08:38:50.547Z,69.18597
2022-10-28T08:43:57.297Z,69.13888
2022-10-28T08:48:59.682Z,69.22169
2022-10-28T08:54:01.316Z,72.06603
2022-10-28T08:59:02.982Z,71.91977
2022-10-28T09:04:04.612Z,68.76711
2022-10-28T09:09:06.214Z,69.45618
2022-10-28T09:14:07.829Z,69.32723
2022-10-28T09:19:09.440Z,71.5963
2022-10-28T09:24:11.087Z,71.53011
2022-10-28T09:29:12.667Z,69.26816
2022-10-28T09:34:14.277Z,69.52915
2022-10-28T09:39:15.930Z,70.74782
2022-10-28T09:44:17.580Z,71.51642
2022-10-28T09:49:19.262Z,70.82957
2022-10-28T09:54:20.891Z,70.93869
2022-10-28T09:59:22.493Z,69.76312
2022-10-28T10:04:24.151Z,72.45574
2022-10-28T10:09:25.833Z,70.31798
2022-10-28T10:14:27.467Z,69.86039
2022-10-28T10:19:29.053Z,71.09866
2022-10-28T10:24:30.726Z,70.09483
2022-10-28T10:29:32.357Z,70.02559
2022-10-28T10:34:34.292Z,69.0428
2022-10-28T10:39:35.897Z,70.50669
2022-10-28T10:44:37.534Z,68.82396
2022-10-28T10:49:39.242Z,68.72263
2022-10-28T10:54:40.990Z,70.55894
2022-10-28T10:59:42.590Z,69.64147
2022-10-28T11:04:44.296Z,71.42965
2022-10-28T11:09:45.956Z,71.98458
2022-10-28T11:14:47.537Z,75.43904
2022-10-28T11:19:49.142Z,73.20529
2022-10-28T11:24:50.768Z,69.80308
2022-10-28T11:29:52.359Z,74.09723
2022-10-28T11:34:53.985Z,71.78807
2022-10-28T11:39:55.613Z,70.12918
2022-10-28T11:44:57.311Z,72.62572
2022-10-28T11:49:58.971Z,78.62276
2022-10-28T11:55:00.576Z,74.5436
2022-10-28T12:00:02.232Z,72.68334
2022-10-28T12:05:03.866Z,70.80307
2022-10-28T12:10:05.489Z,70.49269
2022-10-28T12:15:07.091Z,70.42825
2022-10-28T12:20:08.740Z,69.61538
2022-10-28T12:25:10.471Z,70.95363
2022-10-28T12:30:12.307Z,70.91727
2022-10-28T12:35:14.023Z,70.24712
2022-10-28T12:40:15.654Z,69.87134
2022-10-28T12:45:17.296Z,69.74102
2022-10-28T12:50:18.957Z,72.79131
2022-10-28T12:55:20.663Z,73.85004
2022-10-28T13:00:22.370Z,70.36041
2022-10-28T13:05:23.993Z,70.37999
2022-10-28T13:10:25.654Z,71.22011
2022-10-28T13:15:27.310Z,70.67574
2022-10-28T13:20:28.965Z,72.46281
2022-10-28T13:25:30.718Z,71.81335
2022-10-28T13:30:32.328Z,71.9101
2022-10-28T13:35:34.277Z,70.81323
2022-10-28T13:40:35.921Z,71.19244
2022-10-28T13:45:37.690Z,69.95819
2022-10-28T13:50:39.297Z,70.29097
2022-10-28T13:55:40.822Z,69.82654
2022-10-28T14:00:42.464Z,69.74123
2022-10-28T14:05:44.162Z,70.76605
2022-10-28T14:10:45.797Z,72.56647
2022-10-28T14:15:47.470Z,71.68166
2022-10-28T14:20:49.143Z,72.8048
2022-10-28T14:25:50.792Z,70.28069
2022-10-28T14:30:52.480Z,71.38133
2022-10-28T14:35:54.150Z,71.1406
2022-10-28T14:40:55.789Z,71.19523
2022-10-28T14:45:57.409Z,70.836
2022-10-28T14:50:59.029Z,71.33029
2022-10-28T14:56:00.774Z,71.31231
2022-10-28T15:01:02.457Z,69.11652
2022-10-28T15:06:04.083Z,68.69829
2022-10-28T15:11:05.684Z,69.86432
2022-10-28T15:16:07.364Z,71.21374
2022-10-28T15:21:08.977Z,70.40109
2022-10-28T15:26:10.569Z,70.00728
2022-10-28T15:31:12.310Z,70.88182
2022-10-28T15:36:17.770Z,70.13466
2022-10-28T15:41:20.055Z,71.12717
2022-10-28T15:46:21.744Z,70.66153
2022-10-28T15:51:23.444Z,69.43903
2022-10-28T15:56:25.065Z,71.12427
2022-10-28T16:01:26.897Z,68.63954
2022-10-28T16:06:28.581Z,70.28277
2022-10-28T16:11:30.239Z,71.2996
2022-10-28T16:16:31.984Z,71.94529
2022-10-28T16:21:33.623Z,71.60256
2022-10-28T16:26:35.254Z,70.62202
2022-10-28T16:31:36.997Z,69.4358
2022-10-28T16:36:38.665Z,69.96898
2022-10-28T16:41:40.399Z,73.55881
2022-10-28T16:46:42.074Z,78.95157
2022-10-28T16:51:43.710Z,77.17632
2022-10-28T16:56:45.445Z,74.81109
2022-10-28T17:01:47.215Z,74.46124
2022-10-28T17:06:48.909Z,74.32631
2022-10-28T17:11:50.531Z,72.70043
2022-10-28T17:16:52.186Z,72.26816
2022-10-28T17:21:53.777Z,71.48693
2022-10-28T17:26:55.430Z,70.39489
2022-10-28T17:31:57.187Z,68.75723
2022-10-28T17:36:58.837Z,70.64032
2022-10-28T17:42:00.476Z,70.55683
2022-10-28T17:47:02.121Z,71.63904
2022-10-28T17:52:03.735Z,71.89937
2022-10-28T17:57:05.555Z,69.92156
2022-10-28T18:02:07.280Z,70.30257
2022-10-28T18:07:09.035Z,68.12757
2022-10-28T18:12:10.710Z,67.86167
2022-10-28T18:17:12.319Z,66.82723
2022-10-28T18:22:14.031Z,66.56552
2022-10-28T18:27:15.830Z,67.30453
2022-10-28T18:32:17.428Z,68.39106
2022-10-28T18:37:19.063Z,67.28703
2022-10-28T18:42:21.939Z,66.05219
2022-10-28T18:47:23.833Z,65.90857
2022-10-28T18:52:25.576Z,65.6667
2022-10-28T18:57:27.323Z,66.56505
2022-10-28T19:02:29.138Z,66.18562
2022-10-28T19:07:30.981Z,64.20584
2022-10-28T19:12:32.610Z,64.21836
2022-10-28T19:17:34.210Z,62.00527
2022-10-28T19:22:35.852Z,63.3664
2022-10-28T19:27:37.521Z,65.15514
2022-10-28T19:32:39.120Z,65.88649
2022-10-28T19:37:40.718Z,67.16011
2022-10-28T19:42:42.427Z,66.72459
2022-10-28T19:47:44.144Z,66.23278
2022-10-28T19:52:45.745Z,64.62179
2022-10-28T19:57:50.326Z,70.24224
2022-10-28T20:02:54.638Z,71.23976
2022-10-28T20:07:56.707Z,69.69565
2022-10-28T20:12:58.631Z,67.28758
2022-10-28T20:18:00.232Z,69.61106
2022-10-28T20:23:01.904Z,67.6078
2022-10-28T20:28:03.515Z,68.71482
2022-10-28T20:33:05.376Z,69.66234
2022-10-28T20:43:08.695Z,69.15517
2022-10-28T20:48:10.391Z,69.91094
2022-10-28T20:53:12.028Z,68.90367
2022-10-28T20:58:13.685Z,66.50367
2022-10-28T21:03:15.339Z,63.28947
2022-10-28T21:08:17.157Z,62.67006
2022-10-28T21:13:18.950Z,62.93099
2022-10-28T21:18:20.592Z,63.75632
2022-10-28T21:23:22.203Z,64.57369
2022-10-28T21:28:23.851Z,64.89759
2022-10-28T21:33:25.498Z,56.60662
2022-10-28T21:38:27.070Z,58.39093
2022-10-28T21:43:28.654Z,57.95649
2022-10-28T21:48:30.305Z,58.05141
2022-10-28T21:53:31.924Z,57.36663
2022-10-28T21:58:33.536Z,55.33979
2022-10-28T22:03:35.168Z,56.89191
2022-10-28T22:08:36.786Z,55.05997
2022-10-28T22:13:38.387Z,54.95554
2022-10-28T22:18:40.014Z,55.80645
2022-10-28T22:23:41.684Z,52.82813
2022-10-28T22:28:43.299Z,54.84453
2022-10-28T22:38:46.582Z,56.65221
2022-10-28T22:43:48.311Z,55.39812
2022-10-28T22:48:49.931Z,54.47403
2022-10-28T22:53:51.816Z,53.30507
2022-10-28T22:58:53.488Z,52.73912
2022-10-28T23:03:55.094Z,54.84444
2022-10-28T23:08:56.764Z,54.15179
2022-10-28T23:13:59.859Z,53.98855
2022-10-28T23:19:01.474Z,55.60868
2022-10-28T23:24:03.098Z,54.68533
2022-10-28T23:29:04.719Z,53.79913
2022-10-28T23:34:06.365Z,57.41071
2022-10-28T23:39:08.087Z,60.74438
2022-10-28T23:44:09.749Z,63.97349
2022-10-28T23:49:11.348Z,63.88406
2022-10-28T23:54:12.961Z,60.81374
2022-10-28T23:59:14.604Z,58.22228
